sensor_id;sensor_type;location;lat;lon;timestamp;pressure;altitude;pressure_sealevel;temperature;humidity
21594;BME280;10959;51.328;7.322;2023-02-18T00:00:26;99345.84;;;12.85;84.72
21594;BME280;10959;51.328;7.322;2023-02-18T00:02:53;99338.69;;;12.84;84.84
21594;BME280;10959;51.328;7.322;2023-02-18T00:05:20;99344.81;;;12.87;84.59
21594;BME280;10959;51.328;7.322;2023-02-18T00:07:46;99338.38;;;12.90;84.46
21594;BME280;10959;51.328;7.322;2023-02-18T00:10:14;99342.19;;;12.86;84.52
21594;BME280;10959;51.328;7.322;2023-02-18T00:12:41;99350.06;;;12.90;84.62
21594;BME280;10959;51.328;7.322;2023-02-18T00:15:10;99351.31;;;12.83;84.91
21594;BME280;10959;51.328;7.322;2023-02-18T00:17:36;99348.59;;;12.83;84.90
21594;BME280;10959;51.328;7.322;2023-02-18T00:20:04;99341.31;;;12.85;84.80
21594;BME280;10959;51.328;7.322;2023-02-18T00:22:32;99350.53;;;12.81;84.90
21594;BME280;10959;51.328;7.322;2023-02-18T00:24:58;99339.00;;;12.77;85.25
21594;BME280;10959;51.328;7.322;2023-02-18T00:27:24;99363.25;;;12.79;85.17
21594;BME280;10959;51.328;7.322;2023-02-18T00:29:51;99345.28;;;12.78;85.26
21594;BME280;10959;51.328;7.322;2023-02-18T00:32:19;99341.63;;;12.79;85.34
21594;BME280;10959;51.328;7.322;2023-02-18T00:34:45;99339.06;;;12.76;85.33
21594;BME280;10959;51.328;7.322;2023-02-18T00:37:12;99338.84;;;12.81;85.08
21594;BME280;10959;51.328;7.322;2023-02-18T00:39:38;99330.66;;;12.82;85.04
21594;BME280;10959;51.328;7.322;2023-02-18T00:42:05;99320.78;;;12.81;85.10
21594;BME280;10959;51.328;7.322;2023-02-18T00:44:31;99309.81;;;12.84;84.94
21594;BME280;10959;51.328;7.322;2023-02-18T00:46:57;99299.81;;;12.86;84.77
21594;BME280;10959;51.328;7.322;2023-02-18T00:49:25;99310.78;;;12.83;84.75
21594;BME280;10959;51.328;7.322;2023-02-18T00:51:52;99305.38;;;12.83;85.14
21594;BME280;10959;51.328;7.322;2023-02-18T00:54:18;99309.13;;;12.81;85.12
21594;BME280;10959;51.328;7.322;2023-02-18T00:56:45;99317.94;;;12.84;85.21
21594;BME280;10959;51.328;7.322;2023-02-18T00:59:11;99309.19;;;12.79;85.33
21594;BME280;10959;51.328;7.322;2023-02-18T01:01:37;99316.34;;;12.80;85.26
21594;BME280;10959;51.328;7.322;2023-02-18T01:04:04;99310.78;;;12.83;85.07
21594;BME280;10959;51.328;7.322;2023-02-18T01:06:32;99293.53;;;12.86;84.98
21594;BME280;10959;51.328;7.322;2023-02-18T01:08:58;99300.78;;;12.85;84.79
21594;BME280;10959;51.328;7.322;2023-02-18T01:11:25;99297.34;;;12.82;85.19
21594;BME280;10959;51.328;7.322;2023-02-18T01:13:51;99285.81;;;12.78;85.12
21594;BME280;10959;51.328;7.322;2023-02-18T01:16:18;99291.22;;;12.78;85.32
21594;BME280;10959;51.328;7.322;2023-02-18T01:18:44;99283.75;;;12.83;85.05
21594;BME280;10959;51.328;7.322;2023-02-18T01:21:11;99292.66;;;12.85;85.11
21594;BME280;10959;51.328;7.322;2023-02-18T01:23:40;99290.28;;;12.79;85.04
21594;BME280;10959;51.328;7.322;2023-02-18T01:26:07;99295.78;;;12.77;85.65
21594;BME280;10959;51.328;7.322;2023-02-18T01:28:34;99291.69;;;12.69;85.82
21594;BME280;10959;51.328;7.322;2023-02-18T01:31:04;99296.22;;;12.68;85.57
21594;BME280;10959;51.328;7.322;2023-02-18T01:33:32;99293.28;;;12.73;85.80
21594;BME280;10959;51.328;7.322;2023-02-18T01:35:58;99278.34;;;12.66;86.21
21594;BME280;10959;51.328;7.322;2023-02-18T01:38:25;99282.78;;;12.67;86.21
21594;BME280;10959;51.328;7.322;2023-02-18T01:40:53;99288.97;;;12.69;86.12
21594;BME280;10959;51.328;7.322;2023-02-18T01:43:20;99282.47;;;12.73;86.03
21594;BME280;10959;51.328;7.322;2023-02-18T01:45:56;99281.34;;;12.59;85.80
21594;BME280;10959;51.328;7.322;2023-02-18T01:48:28;99287.19;;;12.69;85.98
21594;BME280;10959;51.328;7.322;2023-02-18T01:51:00;99270.53;;;12.59;86.14
21594;BME280;10959;51.328;7.322;2023-02-18T01:53:30;99260.53;;;12.61;86.39
21594;BME280;10959;51.328;7.322;2023-02-18T01:56:02;99250.66;;;12.43;86.83
21594;BME280;10959;51.328;7.322;2023-02-18T01:58:32;99266.50;;;12.51;87.21
21594;BME280;10959;51.328;7.322;2023-02-18T02:00:59;99258.31;;;12.52;87.23
21594;BME280;10959;51.328;7.322;2023-02-18T02:03:25;99247.34;;;12.55;86.86
21594;BME280;10959;51.328;7.322;2023-02-18T02:05:52;99248.28;;;12.54;86.84
21594;BME280;10959;51.328;7.322;2023-02-18T02:08:18;99261.63;;;12.57;86.72
21594;BME280;10959;51.328;7.322;2023-02-18T02:11:01;99247.94;;;12.43;86.45
21594;BME280;10959;51.328;7.322;2023-02-18T02:13:49;99252.53;;;12.23;87.27
21594;BME280;10959;51.328;7.322;2023-02-18T02:16:23;99249.13;;;12.37;86.92
21594;BME280;10959;51.328;7.322;2023-02-18T02:18:59;99247.56;;;12.33;86.94
21594;BME280;10959;51.328;7.322;2023-02-18T02:22:02;99241.88;;;12.20;87.10
21594;BME280;10959;51.328;7.322;2023-02-18T02:24:56;99242.59;;;12.24;87.08
21594;BME280;10959;51.328;7.322;2023-02-18T02:27:32;99245.56;;;12.37;86.89
21594;BME280;10959;51.328;7.322;2023-02-18T02:30:23;99246.16;;;12.24;86.96
21594;BME280;10959;51.328;7.322;2023-02-18T02:33:15;99251.63;;;12.23;86.94
21594;BME280;10959;51.328;7.322;2023-02-18T02:35:52;99238.22;;;12.21;87.36
21594;BME280;10959;51.328;7.322;2023-02-18T02:38:25;99232.53;;;12.27;87.56
21594;BME280;10959;51.328;7.322;2023-02-18T02:40:59;99231.72;;;12.25;87.32
21594;BME280;10959;51.328;7.322;2023-02-18T02:43:41;99230.78;;;12.26;87.26
21594;BME280;10959;51.328;7.322;2023-02-18T02:46:17;99231.28;;;12.35;86.95
21594;BME280;10959;51.328;7.322;2023-02-18T02:48:47;99228.09;;;12.44;87.08
21594;BME280;10959;51.328;7.322;2023-02-18T02:51:19;99216.44;;;12.43;86.72
21594;BME280;10959;51.328;7.322;2023-02-18T02:53:47;99211.44;;;12.53;86.64
21594;BME280;10959;51.328;7.322;2023-02-18T02:56:15;99210.38;;;12.56;86.49
21594;BME280;10959;51.328;7.322;2023-02-18T02:58:43;99207.75;;;12.54;86.49
21594;BME280;10959;51.328;7.322;2023-02-18T03:01:18;99211.72;;;12.47;86.22
21594;BME280;10959;51.328;7.322;2023-02-18T03:04:06;99216.19;;;12.31;86.52
21594;BME280;10959;51.328;7.322;2023-02-18T03:06:51;99215.84;;;12.37;86.39
21594;BME280;10959;51.328;7.322;2023-02-18T03:09:27;99216.97;;;12.50;86.30
21594;BME280;10959;51.328;7.322;2023-02-18T03:12:02;99209.84;;;12.49;86.23
21594;BME280;10959;51.328;7.322;2023-02-18T03:14:37;99200.63;;;12.53;86.36
21594;BME280;10959;51.328;7.322;2023-02-18T03:17:11;99194.50;;;12.50;86.26
21594;BME280;10959;51.328;7.322;2023-02-18T03:19:44;99182.09;;;12.45;86.13
21594;BME280;10959;51.328;7.322;2023-02-18T03:22:18;99183.38;;;12.38;86.57
21594;BME280;10959;51.328;7.322;2023-02-18T03:24:50;99177.72;;;12.43;86.92
21594;BME280;10959;51.328;7.322;2023-02-18T03:27:20;99179.47;;;12.44;86.79
21594;BME280;10959;51.328;7.322;2023-02-18T03:29:52;99180.91;;;12.51;86.48
21594;BME280;10959;51.328;7.322;2023-02-18T03:32:21;99168.22;;;12.53;86.36
21594;BME280;10959;51.328;7.322;2023-02-18T03:34:50;99162.47;;;12.59;86.19
21594;BME280;10959;51.328;7.322;2023-02-18T03:37:20;99153.56;;;12.57;86.32
21594;BME280;10959;51.328;7.322;2023-02-18T03:39:51;99160.19;;;12.52;86.09
21594;BME280;10959;51.328;7.322;2023-02-18T03:42:24;99156.84;;;12.47;86.35
21594;BME280;10959;51.328;7.322;2023-02-18T03:44:51;99148.50;;;12.51;86.69
21594;BME280;10959;51.328;7.322;2023-02-18T03:47:18;99152.00;;;12.53;86.72
21594;BME280;10959;51.328;7.322;2023-02-18T03:49:44;99144.59;;;12.57;86.60
21594;BME280;10959;51.328;7.322;2023-02-18T03:52:10;99148.34;;;12.54;86.78
21594;BME280;10959;51.328;7.322;2023-02-18T03:54:38;99134.81;;;12.54;86.67
21594;BME280;10959;51.328;7.322;2023-02-18T03:57:05;99128.47;;;12.55;86.62
21594;BME280;10959;51.328;7.322;2023-02-18T03:59:32;99120.28;;;12.57;86.62
21594;BME280;10959;51.328;7.322;2023-02-18T04:01:58;99125.00;;;12.53;87.03
21594;BME280;10959;51.328;7.322;2023-02-18T04:04:25;99119.72;;;12.50;87.06
21594;BME280;10959;51.328;7.322;2023-02-18T04:06:51;99117.84;;;12.52;87.33
21594;BME280;10959;51.328;7.322;2023-02-18T04:09:18;99115.31;;;12.49;87.11
21594;BME280;10959;51.328;7.322;2023-02-18T04:11:45;99120.53;;;12.52;86.93
21594;BME280;10959;51.328;7.322;2023-02-18T04:14:13;99106.09;;;12.53;87.10
21594;BME280;10959;51.328;7.322;2023-02-18T04:16:40;99106.09;;;12.53;87.07
21594;BME280;10959;51.328;7.322;2023-02-18T04:19:06;99100.69;;;12.53;86.94
21594;BME280;10959;51.328;7.322;2023-02-18T04:21:33;99103.13;;;12.58;86.81
21594;BME280;10959;51.328;7.322;2023-02-18T04:24:00;99103.53;;;12.50;87.06
21594;BME280;10959;51.328;7.322;2023-02-18T04:26:27;99090.81;;;12.52;87.10
21594;BME280;10959;51.328;7.322;2023-02-18T04:28:54;99094.13;;;12.57;86.88
21594;BME280;10959;51.328;7.322;2023-02-18T04:31:21;99090.66;;;12.55;87.04
21594;BME280;10959;51.328;7.322;2023-02-18T04:33:48;99088.81;;;12.56;87.10
21594;BME280;10959;51.328;7.322;2023-02-18T04:36:14;99090.81;;;12.52;87.02
21594;BME280;10959;51.328;7.322;2023-02-18T04:38:41;99094.31;;;12.54;87.16
21594;BME280;10959;51.328;7.322;2023-02-18T04:41:07;99094.31;;;12.54;87.09
21594;BME280;10959;51.328;7.322;2023-02-18T04:43:34;99088.91;;;12.54;87.32
21594;BME280;10959;51.328;7.322;2023-02-18T04:46:02;99079.50;;;12.61;86.84
21594;BME280;10959;51.328;7.322;2023-02-18T04:48:29;99082.31;;;12.60;86.94
21594;BME280;10959;51.328;7.322;2023-02-18T04:50:56;99077.94;;;12.57;87.03
21594;BME280;10959;51.328;7.322;2023-02-18T04:53:22;99065.41;;;12.56;86.94
21594;BME280;10959;51.328;7.322;2023-02-18T04:55:49;99067.94;;;12.59;87.00
21594;BME280;10959;51.328;7.322;2023-02-18T04:58:16;99059.28;;;12.53;86.99
21594;BME280;10959;51.328;7.322;2023-02-18T05:00:43;99052.84;;;12.55;86.98
21594;BME280;10959;51.328;7.322;2023-02-18T05:03:10;99049.09;;;12.58;86.85
21594;BME280;10959;51.328;7.322;2023-02-18T05:05:37;99042.03;;;12.55;87.07
21594;BME280;10959;51.328;7.322;2023-02-18T05:08:06;99037.66;;;12.53;86.94
21594;BME280;10959;51.328;7.322;2023-02-18T05:10:33;99050.47;;;12.49;87.23
21594;BME280;10959;51.328;7.322;2023-02-18T05:13:00;99052.16;;;12.52;87.26
21594;BME280;10959;51.328;7.322;2023-02-18T05:15:26;99034.38;;;12.48;87.20
21594;BME280;10959;51.328;7.322;2023-02-18T05:17:53;99040.78;;;12.45;87.37
21594;BME280;10959;51.328;7.322;2023-02-18T05:20:21;99041.56;;;12.47;87.18
21594;BME280;10959;51.328;7.322;2023-02-18T05:22:47;99017.59;;;12.41;87.50
21594;BME280;10959;51.328;7.322;2023-02-18T05:25:14;99017.44;;;12.44;87.39
21594;BME280;10959;51.328;7.322;2023-02-18T05:27:40;99031.38;;;12.36;87.68
21594;BME280;10959;51.328;7.322;2023-02-18T05:30:08;99024.13;;;12.37;87.75
21594;BME280;10959;51.328;7.322;2023-02-18T05:32:34;99015.16;;;12.36;87.93
21594;BME280;10959;51.328;7.322;2023-02-18T05:35:01;99007.16;;;12.35;88.04
21594;BME280;10959;51.328;7.322;2023-02-18T05:37:29;99009.03;;;12.33;87.80
21594;BME280;10959;51.328;7.322;2023-02-18T05:39:55;98998.41;;;12.30;88.08
21594;BME280;10959;51.328;7.322;2023-02-18T05:42:22;99006.34;;;12.33;87.89
21594;BME280;10959;51.328;7.322;2023-02-18T05:44:48;98995.44;;;12.34;87.87
21594;BME280;10959;51.328;7.322;2023-02-18T05:47:15;98990.94;;;12.35;87.91
21594;BME280;10959;51.328;7.322;2023-02-18T05:49:42;98988.31;;;12.33;88.03
21594;BME280;10959;51.328;7.322;2023-02-18T05:52:09;98982.38;;;12.26;87.92
21594;BME280;10959;51.328;7.322;2023-02-18T05:54:38;98986.19;;;12.22;88.31
21594;BME280;10959;51.328;7.322;2023-02-18T05:57:05;98989.66;;;12.24;88.26
21594;BME280;10959;51.328;7.322;2023-02-18T05:59:31;98982.38;;;12.26;88.19
21594;BME280;10959;51.328;7.322;2023-02-18T06:01:58;98977.16;;;12.23;88.24
21594;BME280;10959;51.328;7.322;2023-02-18T06:04:25;98971.91;;;12.20;88.37
21594;BME280;10959;51.328;7.322;2023-02-18T06:06:52;98968.41;;;12.18;88.46
21594;BME280;10959;51.328;7.322;2023-02-18T06:09:18;98973.47;;;12.24;88.48
21594;BME280;10959;51.328;7.322;2023-02-18T06:11:46;98975.38;;;12.22;88.24
21594;BME280;10959;51.328;7.322;2023-02-18T06:14:13;98973.47;;;12.24;88.51
21594;BME280;10959;51.328;7.322;2023-02-18T06:16:40;98971.81;;;12.22;88.38
21594;BME280;10959;51.328;7.322;2023-02-18T06:19:06;98962.84;;;12.21;88.50
21594;BME280;10959;51.328;7.322;2023-02-18T06:21:33;98976.69;;;12.15;88.83
21594;BME280;10959;51.328;7.322;2023-02-18T06:23:59;98986.66;;;12.13;88.93
21594;BME280;10959;51.328;7.322;2023-02-18T06:26:26;98977.44;;;12.17;88.57
21594;BME280;10959;51.328;7.322;2023-02-18T06:28:54;98968.41;;;12.18;88.12
21594;BME280;10959;51.328;7.322;2023-02-18T06:31:20;98972.22;;;12.14;88.86
21594;BME280;10959;51.328;7.322;2023-02-18T06:33:47;98966.34;;;12.06;89.18
21594;BME280;10959;51.328;7.322;2023-02-18T06:36:13;98967.31;;;12.05;88.99
21594;BME280;10959;51.328;7.322;2023-02-18T06:38:42;98966.81;;;12.14;88.75
21594;BME280;10959;51.328;7.322;2023-02-18T06:41:09;98972.06;;;12.17;88.72
21594;BME280;10959;51.328;7.322;2023-02-18T06:43:37;98956.19;;;12.11;88.91
21594;BME280;10959;51.328;7.322;2023-02-18T06:46:05;98954.59;;;12.07;89.05
21594;BME280;10959;51.328;7.322;2023-02-18T06:48:32;98952.84;;;12.06;89.04
21594;BME280;10959;51.328;7.322;2023-02-18T06:50:58;98962.88;;;12.04;89.22
21594;BME280;10959;51.328;7.322;2023-02-18T06:53:25;98960.19;;;12.04;89.42
21594;BME280;10959;51.328;7.322;2023-02-18T06:55:52;98966.34;;;12.06;89.33
21594;BME280;10959;51.328;7.322;2023-02-18T06:58:18;98969.06;;;12.06;89.08
21594;BME280;10959;51.328;7.322;2023-02-18T07:00:45;98967.00;;;12.11;88.98
21594;BME280;10959;51.328;7.322;2023-02-18T07:03:13;98963.66;;;12.06;88.97
21594;BME280;10959;51.328;7.322;2023-02-18T07:05:40;98973.13;;;12.15;88.86
21594;BME280;10959;51.328;7.322;2023-02-18T07:08:07;98981.25;;;12.13;88.68
21594;BME280;10959;51.328;7.322;2023-02-18T07:10:33;98950.09;;;12.07;88.61
21594;BME280;10959;51.328;7.322;2023-02-18T07:13:00;98972.22;;;12.14;88.81
21594;BME280;10959;51.328;7.322;2023-02-18T07:15:26;98969.94;;;12.06;89.11
21594;BME280;10959;51.328;7.322;2023-02-18T07:17:54;98958.41;;;12.03;88.94
21594;BME280;10959;51.328;7.322;2023-02-18T07:20:23;98959.69;;;11.96;88.74
21594;BME280;10959;51.328;7.322;2023-02-18T07:22:49;98954.06;;;12.00;88.92
21594;BME280;10959;51.328;7.322;2023-02-18T07:25:17;98953.53;;;11.93;88.84
21594;BME280;10959;51.328;7.322;2023-02-18T07:27:44;98962.69;;;11.89;89.36
21594;BME280;10959;51.328;7.322;2023-02-18T07:30:11;98952.06;;;11.86;89.24
21594;BME280;10959;51.328;7.322;2023-02-18T07:32:38;98943.91;;;11.88;89.12
21594;BME280;10959;51.328;7.322;2023-02-18T07:35:05;98945.47;;;11.92;89.19
21594;BME280;10959;51.328;7.322;2023-02-18T07:37:33;98957.00;;;11.96;88.82
21594;BME280;10959;51.328;7.322;2023-02-18T07:40:00;98955.56;;;11.88;88.94
21594;BME280;10959;51.328;7.322;2023-02-18T07:42:26;98966.38;;;11.71;89.94
21594;BME280;10959;51.328;7.322;2023-02-18T07:44:53;98967.00;;;11.76;90.02
21594;BME280;10959;51.328;7.322;2023-02-18T07:47:19;98968.91;;;11.74;89.86
21594;BME280;10959;51.328;7.322;2023-02-18T07:49:46;98976.75;;;11.79;89.95
21594;BME280;10959;51.328;7.322;2023-02-18T07:52:13;98983.19;;;11.76;89.17
21594;BME280;10959;51.328;7.322;2023-02-18T07:54:41;98989.63;;;11.73;89.45
21594;BME280;10959;51.328;7.322;2023-02-18T07:57:08;98974.44;;;11.71;89.83
21594;BME280;10959;51.328;7.322;2023-02-18T07:59:34;98988.44;;;11.79;89.35
21594;BME280;10959;51.328;7.322;2023-02-18T08:02:01;98981.66;;;11.88;89.15
21594;BME280;10959;51.328;7.322;2023-02-18T08:04:29;98983.72;;;11.83;88.83
21594;BME280;10959;51.328;7.322;2023-02-18T08:06:56;98973.97;;;11.80;88.86
21594;BME280;10959;51.328;7.322;2023-02-18T08:09:22;98984.75;;;11.80;88.41
21594;BME280;10959;51.328;7.322;2023-02-18T08:11:50;98988.25;;;11.65;88.45
21594;BME280;10959;51.328;7.322;2023-02-18T08:14:16;98978.41;;;11.64;89.43
21594;BME280;10959;51.328;7.322;2023-02-18T08:16:43;98987.13;;;11.69;89.03
21594;BME280;10959;51.328;7.322;2023-02-18T08:19:09;99005.97;;;11.70;88.82
21594;BME280;10959;51.328;7.322;2023-02-18T08:21:35;99002.06;;;11.76;88.83
21594;BME280;10959;51.328;7.322;2023-02-18T08:24:02;99006.66;;;11.74;88.36
21594;BME280;10959;51.328;7.322;2023-02-18T08:26:29;99012.06;;;11.74;88.15
21594;BME280;10959;51.328;7.322;2023-02-18T08:28:57;99010.94;;;11.78;87.80
21594;BME280;10959;51.328;7.322;2023-02-18T08:31:25;99004.78;;;11.76;87.93
21594;BME280;10959;51.328;7.322;2023-02-18T08:33:52;98995.53;;;11.80;87.76
21594;BME280;10959;51.328;7.322;2023-02-18T08:36:20;98999.06;;;11.82;87.81
21594;BME280;10959;51.328;7.322;2023-02-18T08:38:47;98999.06;;;11.82;87.81
21594;BME280;10959;51.328;7.322;2023-02-18T08:41:14;99013.03;;;11.90;87.28
21594;BME280;10959;51.328;7.322;2023-02-18T08:43:42;99031.44;;;11.82;88.06
21594;BME280;10959;51.328;7.322;2023-02-18T08:46:11;99017.44;;;11.74;86.99
21594;BME280;10959;51.328;7.322;2023-02-18T08:48:37;99019.38;;;11.72;87.78
21594;BME280;10959;51.328;7.322;2023-02-18T08:51:12;99017.44;;;11.74;86.78
21594;BME280;10959;51.328;7.322;2023-02-18T08:53:38;99014.25;;;11.66;87.08
21594;BME280;10959;51.328;7.322;2023-02-18T08:56:06;99018.97;;;11.62;87.24
21594;BME280;10959;51.328;7.322;2023-02-18T08:58:33;99025.63;;;11.72;87.65
21594;BME280;10959;51.328;7.322;2023-02-18T09:01:04;99012.06;;;11.74;86.89
21594;BME280;10959;51.328;7.322;2023-02-18T09:03:34;99017.44;;;11.74;86.29
21594;BME280;10959;51.328;7.322;2023-02-18T09:06:00;99020.06;;;11.75;86.63
21594;BME280;10959;51.328;7.322;2023-02-18T09:08:27;99014.31;;;11.83;86.45
21594;BME280;10959;51.328;7.322;2023-02-18T09:10:55;99010.00;;;11.79;85.79
21594;BME280;10959;51.328;7.322;2023-02-18T09:13:22;99000.81;;;11.83;86.00
21594;BME280;10959;51.328;7.322;2023-02-18T09:15:55;99011.97;;;11.58;85.63
21594;BME280;10959;51.328;7.322;2023-02-18T09:18:22;99006.50;;;11.59;86.60
21594;BME280;10959;51.328;7.322;2023-02-18T09:20:49;98985.25;;;11.71;86.14
21594;BME280;10959;51.328;7.322;2023-02-18T09:23:16;99018.72;;;11.67;86.39
21594;BME280;10959;51.328;7.322;2023-02-18T09:25:43;98995.00;;;11.73;86.28
21594;BME280;10959;51.328;7.322;2023-02-18T09:28:09;99004.91;;;11.73;86.14
21594;BME280;10959;51.328;7.322;2023-02-18T09:30:35;98973.72;;;11.67;86.14
21594;BME280;10959;51.328;7.322;2023-02-18T09:33:04;98998.66;;;11.72;85.87
21594;BME280;10959;51.328;7.322;2023-02-18T09:35:30;98991.50;;;11.71;85.28
21594;BME280;10959;51.328;7.322;2023-02-18T09:37:58;98994.28;;;11.70;85.30
21594;BME280;10959;51.328;7.322;2023-02-18T09:40:27;98994.34;;;11.68;85.19
21594;BME280;10959;51.328;7.322;2023-02-18T09:42:56;98998.66;;;11.72;84.94
21594;BME280;10959;51.328;7.322;2023-02-18T09:45:24;98987.84;;;11.72;85.06
21594;BME280;10959;51.328;7.322;2023-02-18T09:47:51;99001.25;;;11.74;85.24
21594;BME280;10959;51.328;7.322;2023-02-18T09:50:20;98981.44;;;11.57;84.71
21594;BME280;10959;51.328;7.322;2023-02-18T09:52:47;98987.44;;;11.63;84.67
21594;BME280;10959;51.328;7.322;2023-02-18T09:55:18;98999.25;;;11.60;84.17
21594;BME280;10959;51.328;7.322;2023-02-18T09:57:46;98996.19;;;11.68;84.11
21594;BME280;10959;51.328;7.322;2023-02-18T10:00:17;98985.69;;;11.62;84.59
21594;BME280;10959;51.328;7.322;2023-02-18T10:02:52;98987.78;;;11.56;84.42
21594;BME280;10959;51.328;7.322;2023-02-18T10:05:20;98980.31;;;11.62;84.53
21594;BME280;10959;51.328;7.322;2023-02-18T10:07:48;98989.03;;;11.67;84.80
21594;BME280;10959;51.328;7.322;2023-02-18T10:10:21;98991.25;;;11.58;84.40
21594;BME280;10959;51.328;7.322;2023-02-18T10:12:51;98991.25;;;11.58;84.76
21594;BME280;10959;51.328;7.322;2023-02-18T10:15:21;99007.44;;;11.58;84.50
21594;BME280;10959;51.328;7.322;2023-02-18T10:17:48;99003.63;;;11.63;84.66
21594;BME280;10959;51.328;7.322;2023-02-18T10:20:19;98997.47;;;11.61;84.32
21594;BME280;10959;51.328;7.322;2023-02-18T10:22:48;98985.56;;;11.65;84.66
21594;BME280;10959;51.328;7.322;2023-02-18T10:25:17;98986.66;;;11.61;84.54
21594;BME280;10959;51.328;7.322;2023-02-18T10:27:47;98983.09;;;11.60;84.65
21594;BME280;10959;51.328;7.322;2023-02-18T10:30:22;98987.19;;;11.50;84.73
21594;BME280;10959;51.328;7.322;2023-02-18T10:32:54;98982.38;;;11.56;85.15
21594;BME280;10959;51.328;7.322;2023-02-18T10:35:23;98981.03;;;11.65;84.69
21594;BME280;10959;51.328;7.322;2023-02-18T10:37:58;98978.75;;;11.57;84.97
21594;BME280;10959;51.328;7.322;2023-02-18T10:40:34;98996.66;;;11.58;85.24
21594;BME280;10959;51.328;7.322;2023-02-18T10:43:15;98975.97;;;11.59;84.91
21594;BME280;10959;51.328;7.322;2023-02-18T10:45:53;98999.44;;;11.57;84.98
21594;BME280;10959;51.328;7.322;2023-02-18T10:48:53;98992.34;;;11.37;85.69
21594;BME280;10959;51.328;7.322;2023-02-18T10:51:29;99006.56;;;11.58;85.66
21594;BME280;10959;51.328;7.322;2023-02-18T10:53:56;98993.25;;;11.72;85.50
21594;BME280;10959;51.328;7.322;2023-02-18T10:56:35;98998.56;;;11.56;85.16
21594;BME280;10959;51.328;7.322;2023-02-18T10:59:10;99008.00;;;11.65;85.17
21594;BME280;10959;51.328;7.322;2023-02-18T11:01:37;99006.34;;;11.80;85.49
21594;BME280;10959;51.328;7.322;2023-02-18T11:04:09;99008.97;;;11.82;85.60
21594;BME280;10959;51.328;7.322;2023-02-18T11:06:39;99011.44;;;11.86;85.76
21594;BME280;10959;51.328;7.322;2023-02-18T11:09:12;99000.72;;;11.85;85.73
21594;BME280;10959;51.328;7.322;2023-02-18T11:11:44;99004.28;;;11.85;85.59
21594;BME280;10959;51.328;7.322;2023-02-18T11:14:14;99002.69;;;11.81;85.53
21594;BME280;10959;51.328;7.322;2023-02-18T11:16:44;99013.16;;;11.87;85.79
21594;BME280;10959;51.328;7.322;2023-02-18T11:19:30;99017.94;;;11.65;85.75
21594;BME280;10959;51.328;7.322;2023-02-18T11:22:07;99030.16;;;11.72;85.96
21594;BME280;10959;51.328;7.322;2023-02-18T11:24:37;99031.44;;;11.82;85.69
21594;BME280;10959;51.328;7.322;2023-02-18T11:27:07;99019.50;;;11.69;85.67
21594;BME280;10959;51.328;7.322;2023-02-18T11:29:36;99023.00;;;11.71;86.06
21594;BME280;10959;51.328;7.322;2023-02-18T11:32:09;99021.25;;;11.52;86.34
21594;BME280;10959;51.328;7.322;2023-02-18T11:34:41;99020.13;;;11.56;86.65
21594;BME280;10959;51.328;7.322;2023-02-18T11:37:11;99028.56;;;11.68;86.97
21594;BME280;10959;51.328;7.322;2023-02-18T11:39:43;99024.59;;;11.75;86.91
21594;BME280;10959;51.328;7.322;2023-02-18T11:42:13;99019.22;;;11.75;86.91
21594;BME280;10959;51.328;7.322;2023-02-18T11:44:48;99021.97;;;11.73;86.72
21594;BME280;10959;51.328;7.322;2023-02-18T11:47:22;99013.81;;;11.75;86.74
21594;BME280;10959;51.328;7.322;2023-02-18T11:50:13;99017.63;;;11.71;86.75
21594;BME280;10959;51.328;7.322;2023-02-18T11:52:41;99014.91;;;11.88;86.89
21594;BME280;10959;51.328;7.322;2023-02-18T11:55:15;99011.72;;;11.80;86.90
21594;BME280;10959;51.328;7.322;2023-02-18T11:57:45;99002.22;;;11.90;87.07
21594;BME280;10959;51.328;7.322;2023-02-18T12:00:35;98999.75;;;11.68;86.89
21594;BME280;10959;51.328;7.322;2023-02-18T12:03:07;99008.25;;;11.78;86.85
21594;BME280;10959;51.328;7.322;2023-02-18T12:05:38;99006.22;;;11.83;87.54
21594;BME280;10959;51.328;7.322;2023-02-18T12:08:10;99007.22;;;11.81;87.04
21594;BME280;10959;51.328;7.322;2023-02-18T12:10:41;99001.44;;;11.88;87.10
21594;BME280;10959;51.328;7.322;2023-02-18T12:13:19;99000.81;;;11.83;87.08
21594;BME280;10959;51.328;7.322;2023-02-18T12:15:53;99000.06;;;11.80;87.18
21594;BME280;10959;51.328;7.322;2023-02-18T12:18:51;99016.03;;;11.67;87.68
21594;BME280;10959;51.328;7.322;2023-02-18T12:21:32;99017.78;;;11.68;87.56
21594;BME280;10959;51.328;7.322;2023-02-18T12:24:11;99019.50;;;11.69;87.30
21594;BME280;10959;51.328;7.322;2023-02-18T12:26:48;99020.81;;;11.79;87.65
21594;BME280;10959;51.328;7.322;2023-02-18T12:29:30;99020.00;;;11.77;87.45
21594;BME280;10959;51.328;7.322;2023-02-18T12:32:13;99018.31;;;11.74;87.51
21594;BME280;10959;51.328;7.322;2023-02-18T12:34:55;99010.72;;;11.83;87.47
21594;BME280;10959;51.328;7.322;2023-02-18T12:37:48;99009.19;;;11.59;87.58
21594;BME280;10959;51.328;7.322;2023-02-18T12:40:37;99018.88;;;11.64;87.98
21594;BME280;10959;51.328;7.322;2023-02-18T12:43:09;99015.56;;;11.76;88.23
21594;BME280;10959;51.328;7.322;2023-02-18T12:46:00;99019.19;;;11.57;88.43
21594;BME280;10959;51.328;7.322;2023-02-18T12:48:44;99011.19;;;11.73;88.15
21594;BME280;10959;51.328;7.322;2023-02-18T12:51:34;99016.19;;;11.64;87.71
21594;BME280;10959;51.328;7.322;2023-02-18T12:54:17;99012.22;;;11.71;87.89
21594;BME280;10959;51.328;7.322;2023-02-18T12:57:02;99014.66;;;11.75;88.23
21594;BME280;10959;51.328;7.322;2023-02-18T12:59:49;99011.28;;;11.72;88.18
21594;BME280;10959;51.328;7.322;2023-02-18T13:02:37;99013.00;;;11.73;88.11
21594;BME280;10959;51.328;7.322;2023-02-18T13:05:16;99004.63;;;11.79;88.36
21594;BME280;10959;51.328;7.322;2023-02-18T13:07:56;99007.47;;;11.76;88.34
21594;BME280;10959;51.328;7.322;2023-02-18T13:10:48;99014.91;;;11.53;87.96
21594;BME280;10959;51.328;7.322;2023-02-18T13:13:18;98999.19;;;11.62;89.50
21594;BME280;10959;51.328;7.322;2023-02-18T13:15:48;99017.63;;;11.71;89.60